Montpelier, Indiana
Current Conditions -  °F | °C
As of 5:35 PM on Wednesday 22 Oct 2014 (Local Time) from KMZZ Reporting Station
Clear Clear  
Wind Chill: 56°   Ceiling: Unl
Heat Index: 56°   Visibility: 7mi
Dew Point: 38°   Wind: 3mph
Humidity: 52%   Direction: 50°NE
Pressure: 30.27"   Gusts: NA
Location:  40.55°N, 85.28°W
Report Text: KMZZ 222135Z AUTO 05003KT 7SM CLR 13/04 A3027 RMK AO2 T01310035
Loading
Personal Weather Stations






























Interactive Weather Map
Tropical Storm Tracking
New forecast layout! Learn more

10-Day Weather Forecast

Advertisements
Track Severe Weather on mobile